createdAt,value
2023-12-09T00:01:43.065Z,97570.47
2023-12-09T00:04:12.894Z,97564.59
2023-12-09T00:06:47.836Z,97560.03
2023-12-09T00:09:15.335Z,97566.50
2023-12-09T00:11:42.060Z,97567.06
2023-12-09T00:14:08.883Z,97564.59
2023-12-09T00:16:36.326Z,97563.34
2023-12-09T00:19:03.539Z,97557.28
2023-12-09T00:21:30.531Z,97555.91
2023-12-09T00:23:58.900Z,97563.34
2023-12-09T00:26:25.956Z,97568.06
2023-12-09T00:28:54.070Z,97564.19
2023-12-09T00:31:20.658Z,97562.31
2023-12-09T00:33:47.485Z,97566.28
2023-12-09T00:36:14.569Z,97576.84
2023-12-09T00:38:41.288Z,97567.38
2023-12-09T00:41:08.065Z,97574.41
2023-12-09T00:43:34.721Z,97570.84
2023-12-09T00:46:01.188Z,97566.69
2023-12-09T00:48:27.900Z,97574.94
2023-12-09T00:50:54.520Z,97573.94
2023-12-09T00:53:21.052Z,97572.97
2023-12-09T00:55:47.533Z,97576.81
2023-12-09T00:58:14.034Z,97579.59
2023-12-09T01:00:40.542Z,97556.44
2023-12-09T01:03:07.345Z,97576.56
2023-12-09T01:05:33.911Z,97564.06
2023-12-09T01:08:00.590Z,97556.59
2023-12-09T01:10:27.386Z,97551.25
2023-12-09T01:12:54.247Z,97545.75
2023-12-09T01:15:24.043Z,97544.50
2023-12-09T01:17:50.802Z,97547.13
2023-12-09T01:20:17.375Z,97543.56
2023-12-09T01:22:44.037Z,97554.03
2023-12-09T01:25:10.644Z,97555.41
2023-12-09T01:27:37.249Z,97552.38
2023-12-09T01:30:05.396Z,97542.47
2023-12-09T01:32:32.280Z,97539.72
2023-12-09T01:34:58.986Z,97547.19
2023-12-09T01:37:26.112Z,97554.34
2023-12-09T01:39:52.936Z,97553.63
2023-12-09T01:42:20.428Z,97557.38
2023-12-09T01:44:47.077Z,97562.88
2023-12-09T01:47:14.311Z,97564.34
2023-12-09T01:49:42.184Z,97570.03
2023-12-09T01:52:08.854Z,97572.09
2023-12-09T01:54:35.623Z,97566.97
2023-12-09T01:57:02.552Z,97569.16
2023-12-09T01:59:29.225Z,97572.75
2023-12-09T02:01:55.852Z,97570.56
2023-12-09T02:04:22.738Z,97559.84
2023-12-09T02:06:49.556Z,97561.47
2023-12-09T02:09:18.150Z,97538.91
2023-12-09T02:12:00.630Z,97539.75
2023-12-09T02:14:30.887Z,97530.34
2023-12-09T02:17:11.953Z,97526.50
2023-12-09T02:19:39.629Z,97507.78
2023-12-09T02:22:08.024Z,97503.06
2023-12-09T02:24:35.245Z,97481.88
2023-12-09T02:27:19.510Z,97485.44
2023-12-09T02:30:04.662Z,97455.19
2023-12-09T02:32:32.616Z,97456.81
2023-12-09T02:35:01.208Z,97449.69
2023-12-09T02:37:30.436Z,97448.28
2023-12-09T02:39:59.378Z,97445.25
2023-12-09T02:42:27.847Z,97439.88
2023-12-09T02:44:56.474Z,97433.13
2023-12-09T02:47:23.064Z,97432.97
2023-12-09T02:49:49.661Z,97428.47
2023-12-09T02:52:16.438Z,97411.09
2023-12-09T02:54:43.002Z,97404.78
2023-12-09T02:57:09.863Z,97404.22
2023-12-09T02:59:36.669Z,97384.00
2023-12-09T03:02:03.278Z,97390.44
2023-12-09T03:04:29.809Z,97389.22
2023-12-09T03:06:56.406Z,97385.50
2023-12-09T03:09:22.899Z,97361.41
2023-12-09T03:11:49.796Z,97361.56
2023-12-09T03:14:16.621Z,97351.75
2023-12-09T03:16:43.245Z,97359.91
2023-12-09T03:19:10.114Z,97341.84
2023-12-09T03:21:37.539Z,97336.22
2023-12-09T03:24:04.105Z,97332.09
2023-12-09T03:26:30.667Z,97308.81
2023-12-09T03:28:57.159Z,97305.53
2023-12-09T03:31:23.822Z,97283.09
2023-12-09T03:33:50.478Z,97289.44
2023-12-09T03:36:17.352Z,97264.41
2023-12-09T03:38:44.460Z,97265.75
2023-12-09T03:41:11.088Z,97260.41
2023-12-09T03:43:38.016Z,97250.88
2023-12-09T03:46:05.706Z,97241.78
2023-12-09T03:48:33.068Z,97225.81
2023-12-09T03:50:59.986Z,97221.13
2023-12-09T03:53:26.631Z,97214.38
2023-12-09T03:55:53.861Z,97225.22
2023-12-09T03:58:23.598Z,97222.06
2023-12-09T04:00:51.727Z,97201.81
2023-12-09T04:03:18.619Z,97212.66
2023-12-09T04:05:45.565Z,97196.56
2023-12-09T04:08:12.105Z,97195.56
2023-12-09T04:10:38.642Z,97204.81
2023-12-09T04:13:05.374Z,97199.00
2023-12-09T04:15:32.122Z,97200.34
2023-12-09T04:17:58.817Z,97196.50
2023-12-09T04:20:25.689Z,97202.81
2023-12-09T04:22:52.258Z,97198.97
2023-12-09T04:25:18.732Z,97204.47
2023-12-09T04:27:45.328Z,97210.28
2023-12-09T04:30:13.379Z,97210.53
2023-12-09T04:32:40.178Z,97202.25
2023-12-09T04:35:07.543Z,97219.94
2023-12-09T04:37:34.411Z,97213.22
2023-12-09T04:40:01.842Z,97213.06
2023-12-09T04:42:29.407Z,97216.91
2023-12-09T04:44:56.253Z,97227.97
2023-12-09T04:47:22.928Z,97222.28
2023-12-09T04:49:50.276Z,97227.69
2023-12-09T04:52:16.806Z,97226.03
2023-12-09T04:54:43.250Z,97230.97
2023-12-09T04:57:09.794Z,97233.75
2023-12-09T04:59:36.241Z,97212.53
2023-12-09T05:02:02.794Z,97214.50
2023-12-09T05:04:29.317Z,97203.63
2023-12-09T05:06:55.960Z,97201.28
2023-12-09T05:09:26.143Z,97203.03
2023-12-09T05:11:52.840Z,97212.00
2023-12-09T05:14:19.460Z,97219.44
2023-12-09T05:16:46.371Z,97212.78
2023-12-09T05:19:13.244Z,97231.56
2023-12-09T05:21:40.371Z,97223.28
2023-12-09T05:24:07.034Z,97230.47
2023-12-09T05:26:34.635Z,97219.44
2023-12-09T05:29:01.259Z,97224.50
2023-12-09T05:31:29.954Z,97223.13
2023-12-09T05:33:56.731Z,97219.44
2023-12-09T05:36:23.333Z,97230.31
2023-12-09T05:38:49.929Z,97230.16
2023-12-09T05:41:16.621Z,97248.63
2023-12-09T05:43:46.197Z,97250.53
2023-12-09T05:46:22.835Z,97273.13
2023-12-09T05:48:50.001Z,97273.66
2023-12-09T05:51:16.977Z,97287.41
2023-12-09T05:53:43.656Z,97296.22
2023-12-09T05:56:11.805Z,97306.31
2023-12-09T05:58:40.508Z,97314.44
2023-12-09T06:01:07.999Z,97310.16
2023-12-09T06:03:34.674Z,97310.56
2023-12-09T06:06:01.603Z,97310.56
2023-12-09T06:08:28.127Z,97321.03
2023-12-09T06:10:54.742Z,97321.84
2023-12-09T06:13:21.239Z,97327.63
2023-12-09T06:15:51.008Z,97343.63
2023-12-09T06:18:17.995Z,97351.59
2023-12-09T06:20:45.296Z,97348.56
2023-12-09T06:23:12.494Z,97342.50
2023-12-09T06:25:39.310Z,97363.31
2023-12-09T06:28:05.971Z,97360.41
2023-12-09T06:30:34.651Z,97366.19
2023-12-09T06:33:02.030Z,97376.38
2023-12-09T06:35:28.871Z,97386.44
2023-12-09T06:37:56.206Z,97386.16
2023-12-09T06:40:24.601Z,97379.66
2023-12-09T06:42:51.088Z,97354.88
2023-12-09T06:45:18.085Z,97377.44
2023-12-09T06:47:44.911Z,97393.84
2023-12-09T06:50:12.400Z,97407.91
2023-12-09T06:52:40.347Z,97416.31
2023-12-09T06:55:07.416Z,97420.72
2023-12-09T06:57:34.702Z,97427.59
2023-12-09T07:00:01.741Z,97436.44
2023-12-09T07:02:40.959Z,97449.53
2023-12-09T07:05:15.600Z,97456.81
2023-12-09T07:07:42.248Z,97460.13
2023-12-09T07:10:09.390Z,97465.34
2023-12-09T07:12:35.954Z,97463.97
2023-12-09T07:15:02.728Z,97456.50
2023-12-09T07:17:29.819Z,97480.41
2023-12-09T07:19:57.866Z,97487.00
2023-12-09T07:22:24.723Z,97485.47
2023-12-09T07:24:51.908Z,97499.69
2023-12-09T07:27:18.994Z,97505.34
2023-12-09T07:29:45.539Z,97508.34
2023-12-09T07:32:12.695Z,97502.44
2023-12-09T07:34:39.586Z,97505.06
2023-12-09T07:37:06.220Z,97509.19
2023-12-09T07:39:33.067Z,97513.06
2023-12-09T07:42:00.306Z,97504.09
2023-12-09T07:44:26.982Z,97496.91
2023-12-09T07:46:53.548Z,97507.53
2023-12-09T07:49:20.116Z,97495.69
2023-12-09T07:51:47.013Z,97493.75
2023-12-09T07:54:13.905Z,97490.72
2023-12-09T07:56:40.919Z,97481.91
2023-12-09T07:59:07.501Z,97481.91
2023-12-09T08:01:34.295Z,97497.63
2023-12-09T08:04:01.180Z,97486.56
2023-12-09T08:06:27.749Z,97496.50
2023-12-09T08:08:54.204Z,97490.00
2023-12-09T08:11:20.869Z,97493.75
2023-12-09T08:13:47.806Z,97499.94
2023-12-09T08:16:14.641Z,97492.38
2023-12-09T08:18:43.445Z,97486.16
2023-12-09T08:21:11.182Z,97490.97
2023-12-09T08:23:38.118Z,97520.22
2023-12-09T08:26:05.205Z,97550.63
2023-12-09T08:28:31.692Z,97584.94
2023-12-09T08:30:58.407Z,97598.47
2023-12-09T08:33:25.294Z,97593.50
2023-12-09T08:35:52.078Z,97594.38
2023-12-09T08:38:18.596Z,97596.94
2023-12-09T08:40:45.692Z,97599.06
2023-12-09T08:43:12.318Z,97602.25
2023-12-09T08:45:38.803Z,97573.38
2023-12-09T08:48:06.079Z,97559.44
2023-12-09T08:50:32.688Z,97577.00
2023-12-09T08:52:59.342Z,97575.50
2023-12-09T08:55:25.868Z,97613.81
2023-12-09T08:57:53.597Z,97621.22
2023-12-09T09:00:22.346Z,97621.78
2023-12-09T09:02:57.041Z,97606.44
2023-12-09T09:05:24.288Z,97610.78
2023-12-09T09:07:52.205Z,97602.25
2023-12-09T09:10:20.204Z,97586.28
2023-12-09T09:12:48.645Z,97569.25
2023-12-09T09:15:17.776Z,97556.13
2023-12-09T09:17:44.627Z,97514.91
2023-12-09T09:20:12.151Z,97566.28
2023-12-09T09:22:39.188Z,97528.28
2023-12-09T09:25:06.082Z,97532.91
2023-12-09T09:27:32.766Z,97542.78
2023-12-09T09:29:59.552Z,97557.88
2023-12-09T09:32:26.794Z,97598.75
2023-12-09T09:34:53.773Z,97615.88
2023-12-09T09:37:20.442Z,97584.38
2023-12-09T09:39:47.222Z,97570.06
2023-12-09T09:42:38.369Z,97601.53
2023-12-09T09:45:27.601Z,97584.78
2023-12-09T09:47:57.879Z,97565.59
2023-12-09T09:50:27.973Z,97553.72
2023-12-09T09:52:55.455Z,97551.84
2023-12-09T09:55:23.677Z,97537.47
2023-12-09T09:57:50.609Z,97504.00
2023-12-09T10:00:20.739Z,97494.50
2023-12-09T10:02:49.258Z,97480.63
2023-12-09T10:05:17.802Z,97476.59
2023-12-09T10:07:45.373Z,97439.06
2023-12-09T10:10:14.353Z,97452.72
2023-12-09T10:12:41.853Z,97435.84
2023-12-09T10:15:09.888Z,97453.81
2023-12-09T10:17:36.616Z,97451.84
2023-12-09T10:20:07.195Z,97418.50
2023-12-09T10:22:33.782Z,97415.34
2023-12-09T10:25:00.363Z,97414.78
2023-12-09T10:27:27.227Z,97400.72
2023-12-09T10:29:55.549Z,97395.09
2023-12-09T10:32:22.665Z,97402.41
2023-12-09T10:34:50.634Z,97385.47
2023-12-09T10:37:18.623Z,97381.31
2023-12-09T10:39:49.403Z,97392.31
2023-12-09T10:42:15.904Z,97420.66
2023-12-09T10:44:43.023Z,97369.72
2023-12-09T10:47:09.547Z,97409.25
2023-12-09T10:49:36.594Z,97415.97
2023-12-09T10:52:03.788Z,97439.06
2023-12-09T10:54:30.983Z,97448.84
2023-12-09T10:56:59.838Z,97441.25
2023-12-09T10:59:28.794Z,97437.56
2023-12-09T11:01:55.581Z,97447.72
2023-12-09T11:04:22.388Z,97414.75
2023-12-09T11:06:51.218Z,97413.44
2023-12-09T11:09:20.223Z,97389.69
2023-12-09T11:11:47.223Z,97372.00
2023-12-09T11:14:14.701Z,97356.31
2023-12-09T11:16:44.063Z,97354.44
2023-12-09T11:19:17.992Z,97332.44
2023-12-09T11:21:46.709Z,97332.72
2023-12-09T11:24:14.820Z,97377.88
2023-12-09T11:26:47.489Z,97377.28
2023-12-09T11:29:18.242Z,97386.22
2023-12-09T11:31:51.336Z,97437.22
2023-12-09T11:34:21.558Z,97405.06
2023-12-09T11:36:51.260Z,97406.56
2023-12-09T11:39:21.382Z,97429.25
2023-12-09T11:41:49.985Z,97414.59
2023-12-09T11:44:17.163Z,97404.50
2023-12-09T11:46:44.602Z,97433.94
2023-12-09T11:49:11.346Z,97436.63
2023-12-09T11:51:40.108Z,97413.22
2023-12-09T11:54:08.764Z,97410.22
2023-12-09T11:56:39.226Z,97384.94
2023-12-09T11:59:06.790Z,97377.75
2023-12-09T12:01:35.433Z,97401.09
2023-12-09T12:04:02.232Z,97423.59
2023-12-09T12:06:28.948Z,97438.88
2023-12-09T12:08:55.777Z,97418.19
2023-12-09T12:11:24.914Z,97394.59
2023-12-09T12:13:53.869Z,97401.69
2023-12-09T12:16:21.198Z,97422.66
2023-12-09T12:18:49.649Z,97418.56
2023-12-09T12:21:16.884Z,97392.69
2023-12-09T12:23:43.674Z,97382.31
2023-12-09T12:26:10.783Z,97358.44
2023-12-09T12:28:37.888Z,97369.44
2023-12-09T12:31:05.743Z,97367.00
2023-12-09T12:33:33.952Z,97362.72
2023-12-09T12:36:02.185Z,97328.66
2023-12-09T12:38:29.226Z,97317.22
2023-12-09T12:40:57.247Z,97294.72
2023-12-09T12:43:24.307Z,97261.25
2023-12-09T12:45:53.064Z,97225.47
2023-12-09T12:48:21.308Z,97218.84
2023-12-09T12:50:50.996Z,97204.03
2023-12-09T12:53:21.725Z,97183.22
2023-12-09T12:55:49.390Z,97161.63
2023-12-09T12:58:16.885Z,97124.91
2023-12-09T13:00:43.485Z,97104.22
2023-12-09T13:03:10.129Z,97070.88
2023-12-09T13:05:36.805Z,97054.66
2023-12-09T13:08:05.402Z,97050.25
2023-12-09T13:10:32.218Z,97035.19
2023-12-09T13:12:58.772Z,97037.75
2023-12-09T13:15:25.320Z,97023.84
2023-12-09T13:17:52.161Z,97024.00
2023-12-09T13:20:18.836Z,97006.28
2023-12-09T13:22:47.294Z,96998.56
2023-12-09T13:25:15.606Z,96994.06
2023-12-09T13:27:43.993Z,96998.28
2023-12-09T13:30:11.249Z,96981.25
2023-12-09T13:32:38.907Z,96970.06
2023-12-09T13:35:06.961Z,96946.81
2023-12-09T13:37:34.504Z,96928.72
2023-12-09T13:40:02.207Z,96927.47
2023-12-09T13:42:29.480Z,96927.06
2023-12-09T13:44:56.284Z,96911.53
2023-12-09T13:47:22.830Z,96903.84
2023-12-09T13:49:49.594Z,96893.34
2023-12-09T13:52:17.356Z,96868.34
2023-12-09T13:54:44.981Z,96900.19
2023-12-09T13:57:11.799Z,96882.50
2023-12-09T13:59:39.055Z,96862.66
2023-12-09T14:02:07.623Z,96849.03
2023-12-09T14:04:34.653Z,96831.00
2023-12-09T14:07:01.926Z,96856.59
2023-12-09T14:09:28.656Z,96837.22
2023-12-09T14:11:55.307Z,96823.13
2023-12-09T14:14:21.855Z,96796.88
2023-12-09T14:16:48.438Z,96770.97
2023-12-09T14:19:15.409Z,96769.00
2023-12-09T14:21:42.931Z,96755.25
2023-12-09T14:24:10.070Z,96730.69
2023-12-09T14:26:37.186Z,96715.75
2023-12-09T14:29:03.713Z,96688.38
2023-12-09T14:31:30.226Z,96695.75
2023-12-09T14:33:57.541Z,96690.97
2023-12-09T14:36:24.341Z,96683.94
2023-12-09T14:38:51.103Z,96668.53
2023-12-09T14:41:17.930Z,96665.09
2023-12-09T14:43:46.916Z,96650.97
2023-12-09T14:46:14.180Z,96636.88
2023-12-09T14:48:43.764Z,96643.75
2023-12-09T14:51:10.593Z,96639.16
2023-12-09T14:53:37.628Z,96644.91
2023-12-09T14:56:04.679Z,96648.00
2023-12-09T14:58:31.797Z,96645.41
2023-12-09T15:00:58.423Z,96638.84
2023-12-09T15:03:25.156Z,96653.59
2023-12-09T15:05:52.432Z,96639.50
2023-12-09T15:08:19.027Z,96638.81
2023-12-09T15:10:45.935Z,96645.38
2023-12-09T15:13:12.684Z,96645.06
2023-12-09T15:15:39.504Z,96660.94
2023-12-09T15:18:06.625Z,96648.19
2023-12-09T15:20:33.269Z,96639.50
2023-12-09T15:22:59.973Z,96651.63
2023-12-09T15:25:26.734Z,96626.72
2023-12-09T15:27:53.477Z,96605.72
2023-12-09T15:30:20.574Z,96596.53
2023-12-09T15:32:48.487Z,96584.09
2023-12-09T15:35:15.048Z,96580.50
2023-12-09T15:37:43.844Z,96562.75
2023-12-09T15:40:12.566Z,96555.38
2023-12-09T15:42:39.221Z,96547.06
2023-12-09T15:45:06.591Z,96556.22
2023-12-09T15:47:33.310Z,96551.56
2023-12-09T15:50:00.677Z,96544.03
2023-12-09T15:52:27.452Z,96523.72
2023-12-09T15:54:54.457Z,96525.84
2023-12-09T15:57:21.155Z,96527.94
2023-12-09T15:59:47.882Z,96528.44
2023-12-09T16:02:14.793Z,96538.94
2023-12-09T16:04:41.933Z,96524.66
2023-12-09T16:07:08.482Z,96531.50
2023-12-09T16:09:40.738Z,96541.38
2023-12-09T16:12:08.196Z,96561.38
2023-12-09T16:14:34.777Z,96561.69
2023-12-09T16:17:03.058Z,96570.88
2023-12-09T16:19:29.724Z,96566.69
2023-12-09T16:21:57.701Z,96558.16
2023-12-09T16:24:28.507Z,96575.06
2023-12-09T16:26:57.075Z,96547.84
2023-12-09T16:29:24.634Z,96525.88
2023-12-09T16:31:51.404Z,96513.63
2023-12-09T16:34:18.080Z,96498.88
2023-12-09T16:36:45.132Z,96482.84
2023-12-09T16:39:14.330Z,96507.78
2023-12-09T16:41:41.265Z,96460.19
2023-12-09T16:44:10.619Z,96454.84
2023-12-09T16:46:38.986Z,96432.41
2023-12-09T16:49:05.584Z,96412.38
2023-12-09T16:51:32.191Z,96407.50
2023-12-09T16:53:58.917Z,96386.50
2023-12-09T16:56:25.390Z,96384.56
2023-12-09T16:58:51.971Z,96366.09
2023-12-09T17:01:18.485Z,96357.38
2023-12-09T17:03:45.214Z,96348.88
2023-12-09T17:06:11.853Z,96331.50
2023-12-09T17:08:38.692Z,96308.31
2023-12-09T17:11:05.190Z,96304.34
2023-12-09T17:13:31.724Z,96284.44
2023-12-09T17:15:58.719Z,96278.72
2023-12-09T17:18:27.027Z,96282.78
2023-12-09T17:20:53.616Z,96260.53
2023-12-09T17:23:20.107Z,96273.56
2023-12-09T17:25:46.743Z,96261.88
2023-12-09T17:28:14.061Z,96273.63
2023-12-09T17:30:40.810Z,96261.81
2023-12-09T17:33:07.611Z,96262.00
2023-12-09T17:35:34.375Z,96259.72
2023-12-09T17:38:01.034Z,96256.44
2023-12-09T17:40:27.687Z,96267.69
2023-12-09T17:42:54.385Z,96245.75
2023-12-09T17:45:21.019Z,96249.69
2023-12-09T17:47:48.315Z,96243.47
2023-12-09T17:50:14.966Z,96245.13
2023-12-09T17:52:42.336Z,96242.84
2023-12-09T17:55:08.853Z,96242.03
2023-12-09T17:57:35.857Z,96243.66
2023-12-09T18:00:04.190Z,96231.53
2023-12-09T18:02:30.993Z,96233.69
2023-12-09T18:04:58.044Z,96236.59
2023-12-09T18:07:24.639Z,96218.59
2023-12-09T18:09:51.140Z,96216.03
2023-12-09T18:12:17.831Z,96216.56
2023-12-09T18:14:45.215Z,96185.59
2023-12-09T18:17:11.759Z,96181.31
2023-12-09T18:19:38.774Z,96179.72
2023-12-09T18:22:06.474Z,96169.22
2023-12-09T18:24:33.081Z,96152.78
2023-12-09T18:26:59.775Z,96143.66
2023-12-09T18:29:28.667Z,96135.91
2023-12-09T18:31:55.416Z,96137.25
2023-12-09T18:34:22.347Z,96126.22
2023-12-09T18:36:49.410Z,96125.81
2023-12-09T18:39:16.229Z,96121.19
2023-12-09T18:41:42.731Z,96131.63
2023-12-09T18:44:09.203Z,96117.59
2023-12-09T18:46:35.832Z,96139.47
2023-12-09T18:49:02.820Z,96120.84
2023-12-09T18:51:29.440Z,96143.94
2023-12-09T18:53:55.931Z,96136.91
2023-12-09T18:56:25.052Z,96138.88
2023-12-09T18:58:51.568Z,96129.19
2023-12-09T19:01:18.424Z,96135.47
2023-12-09T19:03:45.145Z,96126.84
2023-12-09T19:06:12.301Z,96122.78
2023-12-09T19:08:39.258Z,96109.78
2023-12-09T19:11:06.180Z,96101.03
2023-12-09T19:13:33.359Z,96102.91
2023-12-09T19:16:00.101Z,96112.41
2023-12-09T19:18:26.832Z,96098.09
2023-12-09T19:20:53.427Z,96103.44
2023-12-09T19:23:19.990Z,96101.72
2023-12-09T19:25:46.684Z,96073.94
2023-12-09T19:28:13.486Z,96067.81
2023-12-09T19:30:40.110Z,96067.53
2023-12-09T19:33:07.038Z,96049.81
2023-12-09T19:35:33.924Z,96029.13
2023-12-09T19:38:00.401Z,96018.72
2023-12-09T19:40:26.861Z,95997.75
2023-12-09T19:42:55.861Z,95968.28
2023-12-09T19:45:22.600Z,95983.56
2023-12-09T19:47:49.320Z,95984.19
2023-12-09T19:50:16.336Z,95992.25
2023-12-09T19:52:43.037Z,95999.94
2023-12-09T19:55:10.045Z,95987.25
2023-12-09T19:57:36.685Z,95964.22
2023-12-09T20:00:04.564Z,95950.84
2023-12-09T20:02:31.374Z,95958.88
2023-12-09T20:04:58.037Z,95932.59
2023-12-09T20:07:24.754Z,95939.56
2023-12-09T20:09:51.372Z,95937.91
2023-12-09T20:12:18.195Z,95937.03
2023-12-09T20:14:44.713Z,95936.66
2023-12-09T20:17:11.169Z,95940.53
2023-12-09T20:19:38.380Z,95911.19
2023-12-09T20:22:05.536Z,95914.59
2023-12-09T20:24:32.177Z,95901.41
2023-12-09T20:26:58.803Z,95905.94
2023-12-09T20:29:25.350Z,95908.66
2023-12-09T20:31:51.878Z,95908.56
2023-12-09T20:34:18.532Z,95904.84
2023-12-09T20:36:45.150Z,95888.78
2023-12-09T20:39:12.216Z,95880.66
2023-12-09T20:41:38.772Z,95869.53
2023-12-09T20:44:05.570Z,95877.59
2023-12-09T20:46:32.102Z,95860.34
2023-12-09T20:48:58.807Z,95869.25
2023-12-09T20:51:25.855Z,95874.97
2023-12-09T20:53:53.142Z,95879.75
2023-12-09T20:56:19.792Z,95866.38
2023-12-09T20:58:47.520Z,95858.53
2023-12-09T21:01:14.945Z,95863.13
2023-12-09T21:03:42.008Z,95861.75
2023-12-09T21:06:11.479Z,95865.13
2023-12-09T21:08:42.474Z,95846.06
2023-12-09T21:11:09.094Z,95844.53
2023-12-09T21:13:35.571Z,95844.19
2023-12-09T21:16:02.060Z,95841.66
2023-12-09T21:18:29.036Z,95838.13
2023-12-09T21:20:55.749Z,95840.00
2023-12-09T21:23:23.104Z,95850.47
2023-12-09T21:25:50.259Z,95842.28
2023-12-09T21:28:16.768Z,95848.47
2023-12-09T21:30:43.362Z,95843.72
2023-12-09T21:33:09.959Z,95838.47
2023-12-09T21:35:36.602Z,95822.31
2023-12-09T21:38:03.977Z,95832.78
2023-12-09T21:40:30.852Z,95854.91
2023-12-09T21:42:57.760Z,95839.72
2023-12-09T21:45:24.339Z,95859.88
2023-12-09T21:47:55.432Z,95870.72
2023-12-09T21:50:22.629Z,95863.03
2023-12-09T21:52:49.458Z,95851.09
2023-12-09T21:55:16.982Z,95858.16
2023-12-09T21:57:44.107Z,95851.38
2023-12-09T22:00:11.252Z,95836.47
2023-12-09T22:02:37.889Z,95827.28
2023-12-09T22:05:05.040Z,95814.75
2023-12-09T22:07:31.521Z,95822.19
2023-12-09T22:09:58.088Z,95814.59
2023-12-09T22:12:24.721Z,95821.91
2023-12-09T22:14:51.244Z,95835.56
2023-12-09T22:17:17.927Z,95835.00
2023-12-09T22:19:44.472Z,95839.25
2023-12-09T22:22:11.293Z,95832.53
2023-12-09T22:24:37.955Z,95807.06
2023-12-09T22:27:05.340Z,95822.56
2023-12-09T22:29:34.570Z,95826.19
2023-12-09T22:32:01.744Z,95825.81
2023-12-09T22:34:29.118Z,95822.63
2023-12-09T22:36:55.788Z,95824.44
2023-12-09T22:39:22.745Z,95833.56
2023-12-09T22:41:49.310Z,95833.19
2023-12-09T22:44:15.921Z,95832.19
2023-12-09T22:46:42.410Z,95843.56
2023-12-09T22:49:09.284Z,95830.88
2023-12-09T22:51:37.279Z,95800.00
2023-12-09T22:54:04.073Z,95811.22
2023-12-09T22:56:33.328Z,95808.34
2023-12-09T22:59:00.582Z,95800.53
2023-12-09T23:01:32.763Z,95804.34
2023-12-09T23:04:00.827Z,95800.72
2023-12-09T23:06:28.055Z,95824.53
2023-12-09T23:08:55.550Z,95812.03
2023-12-09T23:11:22.024Z,95798.72
2023-12-09T23:13:48.869Z,95801.78
2023-12-09T23:16:15.403Z,95821.78
2023-12-09T23:18:42.409Z,95810.09
2023-12-09T23:21:09.549Z,95805.13
2023-12-09T23:23:36.630Z,95800.31
2023-12-09T23:26:03.288Z,95802.56
2023-12-09T23:28:29.812Z,95805.38
2023-12-09T23:30:56.351Z,95795.72
2023-12-09T23:33:23.204Z,95789.06
2023-12-09T23:35:50.309Z,95771.59
2023-12-09T23:38:16.917Z,95775.69
2023-12-09T23:40:43.989Z,95767.16
2023-12-09T23:43:10.771Z,95771.84
2023-12-09T23:45:38.260Z,95769.28
2023-12-09T23:48:05.809Z,95760.44
2023-12-09T23:50:32.855Z,95752.34
2023-12-09T23:52:59.532Z,95761.84
2023-12-09T23:55:26.578Z,95756.84
2023-12-09T23:57:53.389Z,95751.38
